Bay Breeze — WDE3988 — position and weather

sailwx.info

Track history (hours):
 
Tides and Currents Weather Stations Pressure Air Temp Water Temp Dewpoint Dewpoint Depression Visibility Wind Speed Wind Dir Waves Ship Positions

Bay Breeze

Owner: Harbor Bay Maritime Corporation, San Francisco, CA. More information available from US FCC via Universal Licensing System and Coast Guard Vessel Documentation Center.

Last reported at 2018-Aug-16 03:28 UTC. Time now 2018-Aug-16 08:01 UTC.
Position N 37°48' W 122°24'.

Length 28 m; draft 1.6 m.

Type: Passenger vessel. MMSI: 366971280.

Date/timePositionNaut miles runAvg speedWind from/ knotsBaromVisibWave heightAir tempDewpointWater temp
2018-Aug-16 03:28N 37°48' W 122°24'816.2
2018-Aug-16 03:00N 37°44' W 122°15'714.9
2018-Aug-16 02:30N 37°48' W 122°24'714.7
2018-Aug-16 02:00N 37°44' W 122°15'714.6
2018-Aug-16 01:30N 37°48' W 122°23'714.6
2018-Aug-16 01:01N 37°44' W 122°15'714.3
2018-Aug-16 00:30N 37°48' W 122°24'714.7
2018-Aug-16 00:00N 37°44' W 122°15'714.7
2018-Aug-15 23:30N 37°48' W 122°24'0 0.0
2018-Aug-15 23:00N 37°48' W 122°24'0 0.0
2018-Aug-15 22:30N 37°48' W 122°24'3 6.1
2018-Aug-15 22:00N 37°48' W 122°20'2 3.3
2018-Aug-15 21:30N 37°47' W 122°18'5 9.4
2018-Aug-15 21:00N 37°48' W 122°24'1 2.5
2018-Aug-15 20:30N 37°49' W 122°25'0 0.0
2018-Aug-15 19:58N 37°49' W 122°25'0 0.0
2018-Aug-15 19:30N 37°49' W 122°25'0 0.0
2018-Aug-15 19:00N 37°49' W 122°25'1 2.5
2018-Aug-15 18:30N 37°48' W 122°24'510.7
2018-Aug-15 18:00N 37°48' W 122°17'510.6
2018-Aug-15 17:30N 37°48' W 122°24'0 0.0
2018-Aug-15 17:00N 37°48' W 122°24'0 0.0
2018-Aug-15 16:30N 37°48' W 122°24'0 0.0
2018-Aug-15 16:00N 37°48' W 122°24'714.6
2018-Aug-15 15:30N 37°44' W 122°15'714.4
2018-Aug-15 15:00N 37°48' W 122°24'714.8
2018-Aug-15 14:30N 37°44' W 122°15'714.5
2018-Aug-15 14:00N 37°48' W 122°24'714.8
2018-Aug-15 13:30N 37°44' W 122°15'510.9
2018-Aug-15 13:00N 37°47' W 122°21'2 4.5
2018-Aug-15 12:31N 37°48' W 122°24'0 0.0
2018-Aug-15 03:29N 37°48' W 122°24'815.8
2018-Aug-15 03:00N 37°44' W 122°15'714.9
2018-Aug-15 02:30N 37°48' W 122°24'714.7
2018-Aug-15 02:00N 37°44' W 122°15'714.6
2018-Aug-15 01:31N 37°48' W 122°23'714.5
2018-Aug-15 01:00N 37°44' W 122°15'714.6
2018-Aug-15 00:30N 37°48' W 122°24'714.5
2018-Aug-15 00:00N 37°44' W 122°15'714.7
2018-Aug-14 23:30N 37°48' W 122°24'0 0.0
2018-Aug-14 23:00N 37°48' W 122°24'0 0.0
2018-Aug-14 22:30N 37°48' W 122°24'0 0.7
2018-Aug-14 22:00N 37°48' W 122°23'4 8.7
2018-Aug-14 21:31N 37°47' W 122°18'5 9.2
2018-Aug-14 21:01N 37°48' W 122°23'1 2.6
2018-Aug-14 20:30N 37°49' W 122°25'0 0.0
2018-Aug-14 20:00N 37°49' W 122°25'0 0.0
2018-Aug-14 19:30N 37°49' W 122°25'0 0.0
2018-Aug-14 19:00N 37°49' W 122°25'1 2.5
2018-Aug-14 18:30N 37°48' W 122°24'510.4
2018-Aug-14 17:59N 37°48' W 122°17'511.0
2018-Aug-14 17:30N 37°48' W 122°24'0 0.0
2018-Aug-14 17:00N 37°48' W 122°24'0 0.0
2018-Aug-14 16:30N 37°48' W 122°24'0 0.0
2018-Aug-14 16:00N 37°48' W 122°24'714.6
2018-Aug-14 15:30N 37°44' W 122°15'714.7
2018-Aug-14 15:01N 37°48' W 122°24'714.6
2018-Aug-14 14:30N 37°44' W 122°15'714.6
2018-Aug-14 14:00N 37°48' W 122°24'714.6
2018-Aug-14 13:30N 37°44' W 122°15'4 8.6
2018-Aug-14 13:00N 37°46' W 122°20'3 0.4
2018-Aug-14 03:30N 37°48' W 122°24'815.2
2018-Aug-14 03:00N 37°44' W 122°15'714.6
2018-Aug-14 02:30N 37°48' W 122°24'714.8
2018-Aug-14 02:00N 37°44' W 122°15'714.6
2018-Aug-14 01:30N 37°48' W 122°24'714.5
2018-Aug-14 01:00N 37°44' W 122°16'714.5
2018-Aug-14 00:30N 37°48' W 122°24'714.7
2018-Aug-14 00:00N 37°44' W 122°15'714.5
2018-Aug-13 23:30N 37°48' W 122°24'0 0.0
2018-Aug-13 23:01N 37°48' W 122°24'0 0.0
2018-Aug-13 22:30N 37°48' W 122°24'0 0.1
2018-Aug-13 22:00N 37°48' W 122°23'5 9.2
2018-Aug-13 21:31N 37°47' W 122°18'5 9.0
2018-Aug-13 21:01N 37°48' W 122°23'1 2.6
2018-Aug-13 20:30N 37°49' W 122°25'0 0.0
2018-Aug-13 20:01N 37°49' W 122°25'0 0.0
2018-Aug-13 19:31N 37°49' W 122°25'0 0.0
2018-Aug-13 19:01N 37°49' W 122°25'0 0.0
2018-Aug-13 18:30N 37°49' W 122°25'0 0.0
2018-Aug-13 18:01N 37°49' W 122°25'0 0.1
2018-Aug-13 17:31N 37°49' W 122°25'1 2.6
2018-Aug-13 17:00N 37°48' W 122°24'0 0.0
2018-Aug-13 16:30N 37°48' W 122°24'0 0.0
2018-Aug-13 15:59N 37°48' W 122°24'715.3
2018-Aug-13 15:30N 37°44' W 122°15'714.7
2018-Aug-13 15:00N 37°48' W 122°24'714.4
2018-Aug-13 14:30N 37°44' W 122°15'715.0
2018-Aug-13 14:01N 37°48' W 122°24'714.2
2018-Aug-13 13:30N 37°44' W 122°15'4 7.8
2018-Aug-13 13:00N 37°46' W 122°20'4 0.3
2018-Aug-13 00:39N 37°48' W 122°24'1 4.6
2018-Aug-13 00:31N 37°48' W 122°23'5 9.4
2018-Aug-13 00:00N 37°48' W 122°17'5 9.9
2018-Aug-12 23:30N 37°47' W 122°23'0 0.6
2018-Aug-12 23:00N 37°47' W 122°23'2 3.2
2018-Aug-12 22:30N 37°48' W 122°24'0 0.0
2018-Aug-12 20:02N 37°48' W 122°24'0 0.0
2018-Aug-12 20:00N 37°48' W 122°24'1 2.9
2018-Aug-12 19:30N 37°47' W 122°23'1 2.7
2018-Aug-12 19:00N 37°47' W 122°22'4 7.7
2018-Aug-12 18:30N 37°48' W 122°17'3 6.2
2018-Aug-12 18:01N 37°48' W 122°21'2 4.9
2018-Aug-12 17:30N 37°48' W 122°24'0 0.0
2018-Aug-12 05:59N 37°48' W 122°24'510.8
2018-Aug-12 05:30N 37°48' W 122°17'1 1.6
2018-Aug-12 05:01N 37°48' W 122°18'4 7.8
2018-Aug-12 04:30N 37°47' W 122°23'0 0.5
2018-Aug-12 04:00N 37°47' W 122°23'2 3.1
2018-Aug-12 03:30N 37°48' W 122°24'0 0.0
2018-Aug-12 00:57N 37°48' W 122°24'1 3.2
2018-Aug-12 00:30N 37°47' W 122°23'510.4
2018-Aug-12 00:00N 37°48' W 122°17'1 1.5
2018-Aug-11 23:30N 37°47' W 122°18'5 9.6
2018-Aug-11 23:00N 37°48' W 122°24'0 0.0
2018-Aug-11 22:30N 37°48' W 122°24'0 0.0
2018-Aug-11 03:34N 37°48' W 122°24'0 0.0
2018-Aug-11 03:30N 37°48' W 122°24'815.5
2018-Aug-11 03:00N 37°44' W 122°15'714.5
2018-Aug-11 02:30N 37°48' W 122°24'714.7
2018-Aug-11 02:00N 37°44' W 122°15'714.5
2018-Aug-11 01:30N 37°48' W 122°24'714.8
2018-Aug-11 01:01N 37°44' W 122°15'714.6
2018-Aug-11 00:30N 37°48' W 122°24'714.4
2018-Aug-11 00:00N 37°44' W 122°15'714.5
2018-Aug-10 23:30N 37°48' W 122°24'0 0.0
2018-Aug-10 23:00N 37°48' W 122°24'0 0.0
2018-Aug-10 22:30N 37°48' W 122°24'3 6.0
2018-Aug-10 22:01N 37°48' W 122°20'2 3.4
2018-Aug-10 21:31N 37°47' W 122°18'4 8.8
2018-Aug-10 21:00N 37°48' W 122°23'1 2.7
2018-Aug-10 20:30N 37°49' W 122°25'0 0.0
2018-Aug-10 20:00N 37°49' W 122°25'0 0.0
2018-Aug-10 19:30N 37°49' W 122°25'0 0.0
2018-Aug-10 19:00N 37°49' W 122°25'0 0.0
2018-Aug-10 18:30N 37°49' W 122°25'0 0.0
2018-Aug-10 18:00N 37°49' W 122°25'0 0.0
2018-Aug-10 17:30N 37°49' W 122°25'3 5.8
2018-Aug-10 17:00N 37°47' W 122°21'3 5.8
2018-Aug-10 16:30N 37°46' W 122°18'5 9.1
2018-Aug-10 16:00N 37°48' W 122°24'714.7
2018-Aug-10 15:30N 37°44' W 122°15'714.7
2018-Aug-10 15:01N 37°48' W 122°24'713.9
2018-Aug-10 14:29N 37°44' W 122°15'715.4
2018-Aug-10 14:00N 37°48' W 122°24'713.6
2018-Aug-10 13:28N 37°44' W 122°15'4 8.7
2018-Aug-10 13:00N 37°46' W 122°20'4 7.4
2018-Aug-10 12:30N 37°48' W 122°24'0 0.0
2018-Aug-10 03:36N 37°48' W 122°24'0 2.3
2018-Aug-10 03:31N 37°48' W 122°24'815.0
2018-Aug-10 03:00N 37°44' W 122°15'714.7
2018-Aug-10 02:30N 37°48' W 122°24'714.7
2018-Aug-10 02:01N 37°44' W 122°15'714.3
2018-Aug-10 01:30N 37°48' W 122°23'714.2
2018-Aug-10 01:00N 37°44' W 122°15'714.6
2018-Aug-10 00:30N 37°48' W 122°24'714.7
2018-Aug-10 00:00N 37°44' W 122°15'714.1
2018-Aug-09 23:29N 37°48' W 122°24'0 0.0
2018-Aug-09 23:00N 37°48' W 122°24'0 0.0
2018-Aug-09 22:30N 37°48' W 122°24'3 6.0
2018-Aug-09 22:01N 37°48' W 122°20'2 3.4
2018-Aug-09 21:30N 37°47' W 122°18'4 9.0
2018-Aug-09 21:00N 37°48' W 122°23'1 2.6
2018-Aug-09 20:30N 37°49' W 122°25'0 0.0
2018-Aug-09 20:00N 37°49' W 122°25'0 0.0
2018-Aug-09 19:31N 37°49' W 122°25'0 0.0
2018-Aug-09 19:01N 37°49' W 122°25'0 0.0
2018-Aug-09 18:31N 37°49' W 122°25'0 0.0
2018-Aug-09 18:01N 37°49' W 122°25'0 0.0
2018-Aug-09 17:31N 37°49' W 122°25'0 0.0
2018-Aug-09 17:00N 37°49' W 122°25'0 0.1
2018-Aug-09 16:30N 37°49' W 122°25'0 0.0
2018-Aug-09 16:00N 37°49' W 122°25'2 4.1
2018-Aug-09 15:31N 37°48' W 122°22'1 0.1
2018-Aug-09 01:52N 37°48' W 122°24'2 6.2
2018-Aug-09 01:30N 37°47' W 122°21'4 8.1
2018-Aug-09 01:00N 37°45' W 122°17'2 3.0
2018-Aug-09 00:30N 37°44' W 122°15'0 0.3
2018-Aug-09 00:00N 37°44' W 122°16'8 0.4
2018-Aug-08 03:33N 37°48' W 122°24'0 0.0
2018-Aug-08 03:30N 37°48' W 122°24'815.4
2018-Aug-08 03:00N 37°44' W 122°15'714.6
2018-Aug-08 02:30N 37°48' W 122°24'714.6
2018-Aug-08 02:00N 37°44' W 122°15'714.4
2018-Aug-08 01:31N 37°48' W 122°23'714.3
2018-Aug-08 01:01N 37°44' W 122°15'714.5
2018-Aug-08 00:30N 37°48' W 122°24'714.6
2018-Aug-08 00:00N 37°44' W 122°15'714.7
2018-Aug-07 23:30N 37°48' W 122°24'0 0.0
2018-Aug-07 23:00N 37°48' W 122°24'0 0.0
2018-Aug-07 22:30N 37°48' W 122°24'3 5.4
2018-Aug-07 22:01N 37°48' W 122°20'2 4.1
2018-Aug-07 21:30N 37°47' W 122°18'5 9.1
2018-Aug-07 21:01N 37°48' W 122°23'1 2.6
2018-Aug-07 20:30N 37°49' W 122°25'0 0.0
2018-Aug-07 20:00N 37°49' W 122°25'0 0.0
2018-Aug-07 19:30N 37°49' W 122°25'0 0.0
2018-Aug-07 19:00N 37°49' W 122°25'0 0.1
2018-Aug-07 18:30N 37°49' W 122°25'1 1.8
2018-Aug-07 18:00N 37°48' W 122°24'0 0.0
2018-Aug-07 17:30N 37°48' W 122°24'0 0.8
2018-Aug-07 17:01N 37°48' W 122°23'0 0.3
2018-Aug-07 16:30N 37°48' W 122°24'0 0.2
2018-Aug-07 16:00N 37°48' W 122°24'714.9
2018-Aug-07 15:30N 37°44' W 122°15'714.5
2018-Aug-07 15:00N 37°48' W 122°24'714.7
2018-Aug-07 14:31N 37°44' W 122°15'714.6
2018-Aug-07 14:00N 37°48' W 122°24'714.5
2018-Aug-07 13:30N 37°44' W 122°15'2 4.8
2018-Aug-07 13:00N 37°45' W 122°18'510.7
2018-Aug-07 12:30N 37°48' W 122°24'0 0.0
2018-Aug-07 03:30N 37°48' W 122°24'815.5
2018-Aug-07 03:00N 37°44' W 122°15'714.8
2018-Aug-07 02:30N 37°48' W 122°24'714.4
2018-Aug-07 02:00N 37°44' W 122°16'713.1
2018-Aug-07 01:30N 37°47' W 122°23'613.0
2018-Aug-07 01:00N 37°44' W 122°16'714.2
2018-Aug-07 00:30N 37°48' W 122°23'714.4
2018-Aug-07 00:00N 37°44' W 122°15'714.6
2018-Aug-06 23:30N 37°48' W 122°24'0 0.0
2018-Aug-06 23:01N 37°48' W 122°24'0 0.0
2018-Aug-06 22:30N 37°48' W 122°24'3 6.6
2018-Aug-06 22:00N 37°48' W 122°19'1 2.8
2018-Aug-06 21:30N 37°47' W 122°18'4 8.8
2018-Aug-06 21:00N 37°48' W 122°23'1 2.7
2018-Aug-06 20:30N 37°49' W 122°25'0 0.0
2018-Aug-06 20:00N 37°49' W 122°25'0 0.0
2018-Aug-06 19:30N 37°49' W 122°25'0 0.0
2018-Aug-06 19:00N 37°49' W 122°25'1 2.6
2018-Aug-06 18:30N 37°48' W 122°24'510.6
2018-Aug-06 18:00N 37°48' W 122°17'510.6
2018-Aug-06 17:30N 37°48' W 122°24'0 0.8
2018-Aug-06 17:00N 37°48' W 122°24'0 0.0
2018-Aug-06 16:30N 37°48' W 122°24'0 0.8
2018-Aug-06 16:00N 37°48' W 122°24'714.5
2018-Aug-06 15:30N 37°44' W 122°15'714.6
2018-Aug-06 15:00N 37°48' W 122°24'714.7
2018-Aug-06 14:30N 37°44' W 122°15'714.6
2018-Aug-06 14:00N 37°48' W 122°24'714.7
2018-Aug-06 13:30N 37°44' W 122°15'815.0
2018-Aug-06 13:00N 37°48' W 122°24'0 0.4
2018-Aug-06 12:30N 37°48' W 122°24'  
Track history (hours):
 
Tides and Currents Weather Stations Pressure Air Temp Water Temp Dewpoint Dewpoint Depression Visibility Wind Speed Wind Dir Waves Ship Positions

Bay Breeze

Owner: Harbor Bay Maritime Corporation, San Francisco, CA. More information available from US FCC via Universal Licensing System and Coast Guard Vessel Documentation Center.

Last reported at 2018-Aug-16 03:28 UTC. Time now 2018-Aug-16 08:01 UTC.
Position N 37°48' W 122°24'.

Length 28 m; draft 1.6 m.

Type: Passenger vessel. MMSI: 366971280.

Date/timePositionNaut miles runAvg speedWind from/ knotsBaromVisibWave heightAir tempDewpointWater temp
2018-Aug-16 03:28N 37°48' W 122°24'816.2
2018-Aug-16 03:00N 37°44' W 122°15'714.9
2018-Aug-16 02:30N 37°48' W 122°24'714.7
2018-Aug-16 02:00N 37°44' W 122°15'714.6
2018-Aug-16 01:30N 37°48' W 122°23'714.6
2018-Aug-16 01:01N 37°44' W 122°15'714.3
2018-Aug-16 00:30N 37°48' W 122°24'714.7
2018-Aug-16 00:00N 37°44' W 122°15'714.7
2018-Aug-15 23:30N 37°48' W 122°24'0 0.0
2018-Aug-15 23:00N 37°48' W 122°24'0 0.0
2018-Aug-15 22:30N 37°48' W 122°24'3 6.1
2018-Aug-15 22:00N 37°48' W 122°20'2 3.3
2018-Aug-15 21:30N 37°47' W 122°18'5 9.4
2018-Aug-15 21:00N 37°48' W 122°24'1 2.5
2018-Aug-15 20:30N 37°49' W 122°25'0 0.0
2018-Aug-15 19:58N 37°49' W 122°25'0 0.0
2018-Aug-15 19:30N 37°49' W 122°25'0 0.0
2018-Aug-15 19:00N 37°49' W 122°25'1 2.5
2018-Aug-15 18:30N 37°48' W 122°24'510.7
2018-Aug-15 18:00N 37°48' W 122°17'510.6
2018-Aug-15 17:30N 37°48' W 122°24'0 0.0
2018-Aug-15 17:00N 37°48' W 122°24'0 0.0
2018-Aug-15 16:30N 37°48' W 122°24'0 0.0
2018-Aug-15 16:00N 37°48' W 122°24'714.6
2018-Aug-15 15:30N 37°44' W 122°15'714.4
2018-Aug-15 15:00N 37°48' W 122°24'714.8
2018-Aug-15 14:30N 37°44' W 122°15'714.5
2018-Aug-15 14:00N 37°48' W 122°24'714.8
2018-Aug-15 13:30N 37°44' W 122°15'510.9
2018-Aug-15 13:00N 37°47' W 122°21'2 4.5
2018-Aug-15 12:31N 37°48' W 122°24'0 0.0
2018-Aug-15 03:29N 37°48' W 122°24'815.8
2018-Aug-15 03:00N 37°44' W 122°15'714.9
2018-Aug-15 02:30N 37°48' W 122°24'714.7
2018-Aug-15 02:00N 37°44' W 122°15'714.6
2018-Aug-15 01:31N 37°48' W 122°23'714.5
2018-Aug-15 01:00N 37°44' W 122°15'714.6
2018-Aug-15 00:30N 37°48' W 122°24'714.5
2018-Aug-15 00:00N 37°44' W 122°15'714.7
2018-Aug-14 23:30N 37°48' W 122°24'0 0.0
2018-Aug-14 23:00N 37°48' W 122°24'0 0.0
2018-Aug-14 22:30N 37°48' W 122°24'0 0.7
2018-Aug-14 22:00N 37°48' W 122°23'4 8.7
2018-Aug-14 21:31N 37°47' W 122°18'5 9.2
2018-Aug-14 21:01N 37°48' W 122°23'1 2.6
2018-Aug-14 20:30N 37°49' W 122°25'0 0.0
2018-Aug-14 20:00N 37°49' W 122°25'0 0.0
2018-Aug-14 19:30N 37°49' W 122°25'0 0.0
2018-Aug-14 19:00N 37°49' W 122°25'1 2.5
2018-Aug-14 18:30N 37°48' W 122°24'510.4
2018-Aug-14 17:59N 37°48' W 122°17'511.0
2018-Aug-14 17:30N 37°48' W 122°24'0 0.0
2018-Aug-14 17:00N 37°48' W 122°24'0 0.0
2018-Aug-14 16:30N 37°48' W 122°24'0 0.0
2018-Aug-14 16:00N 37°48' W 122°24'714.6
2018-Aug-14 15:30N 37°44' W 122°15'714.7
2018-Aug-14 15:01N 37°48' W 122°24'714.6
2018-Aug-14 14:30N 37°44' W 122°15'714.6
2018-Aug-14 14:00N 37°48' W 122°24'714.6
2018-Aug-14 13:30N 37°44' W 122°15'4 8.6
2018-Aug-14 13:00N 37°46' W 122°20'3 0.4
2018-Aug-14 03:30N 37°48' W 122°24'815.2
2018-Aug-14 03:00N 37°44' W 122°15'714.6
2018-Aug-14 02:30N 37°48' W 122°24'714.8
2018-Aug-14 02:00N 37°44' W 122°15'714.6
2018-Aug-14 01:30N 37°48' W 122°24'714.5
2018-Aug-14 01:00N 37°44' W 122°16'714.5
2018-Aug-14 00:30N 37°48' W 122°24'714.7
2018-Aug-14 00:00N 37°44' W 122°15'714.5
2018-Aug-13 23:30N 37°48' W 122°24'0 0.0
2018-Aug-13 23:01N 37°48' W 122°24'0 0.0
2018-Aug-13 22:30N 37°48' W 122°24'0 0.1
2018-Aug-13 22:00N 37°48' W 122°23'5 9.2
2018-Aug-13 21:31N 37°47' W 122°18'5 9.0
2018-Aug-13 21:01N 37°48' W 122°23'1 2.6
2018-Aug-13 20:30N 37°49' W 122°25'0 0.0
2018-Aug-13 20:01N 37°49' W 122°25'0 0.0
2018-Aug-13 19:31N 37°49' W 122°25'0 0.0
2018-Aug-13 19:01N 37°49' W 122°25'0 0.0
2018-Aug-13 18:30N 37°49' W 122°25'0 0.0
2018-Aug-13 18:01N 37°49' W 122°25'0 0.1
2018-Aug-13 17:31N 37°49' W 122°25'1 2.6
2018-Aug-13 17:00N 37°48' W 122°24'0 0.0
2018-Aug-13 16:30N 37°48' W 122°24'0 0.0
2018-Aug-13 15:59N 37°48' W 122°24'715.3
2018-Aug-13 15:30N 37°44' W 122°15'714.7
2018-Aug-13 15:00N 37°48' W 122°24'714.4
2018-Aug-13 14:30N 37°44' W 122°15'715.0
2018-Aug-13 14:01N 37°48' W 122°24'714.2
2018-Aug-13 13:30N 37°44' W 122°15'4 7.8
2018-Aug-13 13:00N 37°46' W 122°20'4 0.3
2018-Aug-13 00:39N 37°48' W 122°24'1 4.6
2018-Aug-13 00:31N 37°48' W 122°23'5 9.4
2018-Aug-13 00:00N 37°48' W 122°17'5 9.9
2018-Aug-12 23:30N 37°47' W 122°23'0 0.6
2018-Aug-12 23:00N 37°47' W 122°23'2 3.2
2018-Aug-12 22:30N 37°48' W 122°24'0 0.0
2018-Aug-12 20:02N 37°48' W 122°24'0 0.0
2018-Aug-12 20:00N 37°48' W 122°24'1 2.9
2018-Aug-12 19:30N 37°47' W 122°23'1 2.7
2018-Aug-12 19:00N 37°47' W 122°22'4 7.7
2018-Aug-12 18:30N 37°48' W 122°17'3 6.2
2018-Aug-12 18:01N 37°48' W 122°21'2 4.9
2018-Aug-12 17:30N 37°48' W 122°24'0 0.0
2018-Aug-12 05:59N 37°48' W 122°24'510.8
2018-Aug-12 05:30N 37°48' W 122°17'1 1.6
2018-Aug-12 05:01N 37°48' W 122°18'4 7.8
2018-Aug-12 04:30N 37°47' W 122°23'0 0.5
2018-Aug-12 04:00N 37°47' W 122°23'2 3.1
2018-Aug-12 03:30N 37°48' W 122°24'0 0.0
2018-Aug-12 00:57N 37°48' W 122°24'1 3.2
2018-Aug-12 00:30N 37°47' W 122°23'510.4
2018-Aug-12 00:00N 37°48' W 122°17'1 1.5
2018-Aug-11 23:30N 37°47' W 122°18'5 9.6
2018-Aug-11 23:00N 37°48' W 122°24'0 0.0
2018-Aug-11 22:30N 37°48' W 122°24'0 0.0
2018-Aug-11 03:34N 37°48' W 122°24'0 0.0
2018-Aug-11 03:30N 37°48' W 122°24'815.5
2018-Aug-11 03:00N 37°44' W 122°15'714.5
2018-Aug-11 02:30N 37°48' W 122°24'714.7
2018-Aug-11 02:00N 37°44' W 122°15'714.5
2018-Aug-11 01:30N 37°48' W 122°24'714.8
2018-Aug-11 01:01N 37°44' W 122°15'714.6
2018-Aug-11 00:30N 37°48' W 122°24'714.4
2018-Aug-11 00:00N 37°44' W 122°15'714.5
2018-Aug-10 23:30N 37°48' W 122°24'0 0.0
2018-Aug-10 23:00N 37°48' W 122°24'0 0.0
2018-Aug-10 22:30N 37°48' W 122°24'3 6.0
2018-Aug-10 22:01N 37°48' W 122°20'2 3.4
2018-Aug-10 21:31N 37°47' W 122°18'4 8.8
2018-Aug-10 21:00N 37°48' W 122°23'1 2.7
2018-Aug-10 20:30N 37°49' W 122°25'0 0.0
2018-Aug-10 20:00N 37°49' W 122°25'0 0.0
2018-Aug-10 19:30N 37°49' W 122°25'0 0.0
2018-Aug-10 19:00N 37°49' W 122°25'0 0.0
2018-Aug-10 18:30N 37°49' W 122°25'0 0.0
2018-Aug-10 18:00N 37°49' W 122°25'0 0.0
2018-Aug-10 17:30N 37°49' W 122°25'3 5.8
2018-Aug-10 17:00N 37°47' W 122°21'3 5.8
2018-Aug-10 16:30N 37°46' W 122°18'5 9.1
2018-Aug-10 16:00N 37°48' W 122°24'714.7
2018-Aug-10 15:30N 37°44' W 122°15'714.7
2018-Aug-10 15:01N 37°48' W 122°24'713.9
2018-Aug-10 14:29N 37°44' W 122°15'715.4
2018-Aug-10 14:00N 37°48' W 122°24'713.6
2018-Aug-10 13:28N 37°44' W 122°15'4 8.7
2018-Aug-10 13:00N 37°46' W 122°20'4 7.4
2018-Aug-10 12:30N 37°48' W 122°24'0 0.0
2018-Aug-10 03:36N 37°48' W 122°24'0 2.3
2018-Aug-10 03:31N 37°48' W 122°24'815.0
2018-Aug-10 03:00N 37°44' W 122°15'714.7
2018-Aug-10 02:30N 37°48' W 122°24'714.7
2018-Aug-10 02:01N 37°44' W 122°15'714.3
2018-Aug-10 01:30N 37°48' W 122°23'714.2
2018-Aug-10 01:00N 37°44' W 122°15'714.6
2018-Aug-10 00:30N 37°48' W 122°24'714.7
2018-Aug-10 00:00N 37°44' W 122°15'714.1
2018-Aug-09 23:29N 37°48' W 122°24'0 0.0
2018-Aug-09 23:00N 37°48' W 122°24'0 0.0
2018-Aug-09 22:30N 37°48' W 122°24'3 6.0
2018-Aug-09 22:01N 37°48' W 122°20'2 3.4
2018-Aug-09 21:30N 37°47' W 122°18'4 9.0
2018-Aug-09 21:00N 37°48' W 122°23'1 2.6
2018-Aug-09 20:30N 37°49' W 122°25'0 0.0
2018-Aug-09 20:00N 37°49' W 122°25'0 0.0
2018-Aug-09 19:31N 37°49' W 122°25'0 0.0
2018-Aug-09 19:01N 37°49' W 122°25'0 0.0
2018-Aug-09 18:31N 37°49' W 122°25'0 0.0
2018-Aug-09 18:01N 37°49' W 122°25'0 0.0
2018-Aug-09 17:31N 37°49' W 122°25'0 0.0
2018-Aug-09 17:00N 37°49' W 122°25'0 0.1
2018-Aug-09 16:30N 37°49' W 122°25'0 0.0
2018-Aug-09 16:00N 37°49' W 122°25'2 4.1
2018-Aug-09 15:31N 37°48' W 122°22'1 0.1
2018-Aug-09 01:52N 37°48' W 122°24'2 6.2
2018-Aug-09 01:30N 37°47' W 122°21'4 8.1
2018-Aug-09 01:00N 37°45' W 122°17'2 3.0
2018-Aug-09 00:30N 37°44' W 122°15'0 0.3
2018-Aug-09 00:00N 37°44' W 122°16'8 0.4
2018-Aug-08 03:33N 37°48' W 122°24'0 0.0
2018-Aug-08 03:30N 37°48' W 122°24'815.4
2018-Aug-08 03:00N 37°44' W 122°15'714.6
2018-Aug-08 02:30N 37°48' W 122°24'714.6
2018-Aug-08 02:00N 37°44' W 122°15'714.4
2018-Aug-08 01:31N 37°48' W 122°23'714.3
2018-Aug-08 01:01N 37°44' W 122°15'714.5
2018-Aug-08 00:30N 37°48' W 122°24'714.6
2018-Aug-08 00:00N 37°44' W 122°15'714.7
2018-Aug-07 23:30N 37°48' W 122°24'0 0.0
2018-Aug-07 23:00N 37°48' W 122°24'0 0.0
2018-Aug-07 22:30N 37°48' W 122°24'3 5.4
2018-Aug-07 22:01N 37°48' W 122°20'2 4.1
2018-Aug-07 21:30N 37°47' W 122°18'5 9.1
2018-Aug-07 21:01N 37°48' W 122°23'1 2.6
2018-Aug-07 20:30N 37°49' W 122°25'0 0.0
2018-Aug-07 20:00N 37°49' W 122°25'0 0.0
2018-Aug-07 19:30N 37°49' W 122°25'0 0.0
2018-Aug-07 19:00N 37°49' W 122°25'0 0.1
2018-Aug-07 18:30N 37°49' W 122°25'1 1.8
2018-Aug-07 18:00N 37°48' W 122°24'0 0.0
2018-Aug-07 17:30N 37°48' W 122°24'0 0.8
2018-Aug-07 17:01N 37°48' W 122°23'0 0.3
2018-Aug-07 16:30N 37°48' W 122°24'0 0.2
2018-Aug-07 16:00N 37°48' W 122°24'714.9
2018-Aug-07 15:30N 37°44' W 122°15'714.5
2018-Aug-07 15:00N 37°48' W 122°24'714.7
2018-Aug-07 14:31N 37°44' W 122°15'714.6
2018-Aug-07 14:00N 37°48' W 122°24'714.5
2018-Aug-07 13:30N 37°44' W 122°15'2 4.8
2018-Aug-07 13:00N 37°45' W 122°18'510.7
2018-Aug-07 12:30N 37°48' W 122°24'0 0.0
2018-Aug-07 03:30N 37°48' W 122°24'815.5
2018-Aug-07 03:00N 37°44' W 122°15'714.8
2018-Aug-07 02:30N 37°48' W 122°24'714.4
2018-Aug-07 02:00N 37°44' W 122°16'713.1
2018-Aug-07 01:30N 37°47' W 122°23'613.0
2018-Aug-07 01:00N 37°44' W 122°16'714.2
2018-Aug-07 00:30N 37°48' W 122°23'714.4
2018-Aug-07 00:00N 37°44' W 122°15'714.6
2018-Aug-06 23:30N 37°48' W 122°24'0 0.0
2018-Aug-06 23:01N 37°48' W 122°24'0 0.0
2018-Aug-06 22:30N 37°48' W 122°24'3 6.6
2018-Aug-06 22:00N 37°48' W 122°19'1 2.8
2018-Aug-06 21:30N 37°47' W 122°18'4 8.8
2018-Aug-06 21:00N 37°48' W 122°23'1 2.7
2018-Aug-06 20:30N 37°49' W 122°25'0 0.0
2018-Aug-06 20:00N 37°49' W 122°25'0 0.0
2018-Aug-06 19:30N 37°49' W 122°25'0 0.0
2018-Aug-06 19:00N 37°49' W 122°25'1 2.6
2018-Aug-06 18:30N 37°48' W 122°24'510.6
2018-Aug-06 18:00N 37°48' W 122°17'510.6
2018-Aug-06 17:30N 37°48' W 122°24'0 0.8
2018-Aug-06 17:00N 37°48' W 122°24'0 0.0
2018-Aug-06 16:30N 37°48' W 122°24'0 0.8
2018-Aug-06 16:00N 37°48' W 122°24'714.5
2018-Aug-06 15:30N 37°44' W 122°15'714.6
2018-Aug-06 15:00N 37°48' W 122°24'714.7
2018-Aug-06 14:30N 37°44' W 122°15'714.6
2018-Aug-06 14:00N 37°48' W 122°24'714.7
2018-Aug-06 13:30N 37°44' W 122°15'815.0
2018-Aug-06 13:00N 37°48' W 122°24'0 0.4
2018-Aug-06 12:30N 37°48' W 122°24'  

Dump ship's entire track history